createdAt,value
2018-10-18T00:00:20.261Z,86.90
2018-10-18T00:02:50.131Z,86.80
2018-10-18T00:05:19.967Z,86.70
2018-10-18T00:07:49.777Z,86.70
2018-10-18T00:10:19.702Z,86.60
2018-10-18T00:12:49.577Z,86.50
2018-10-18T00:15:19.341Z,86.50
2018-10-18T00:17:49.164Z,86.60
2018-10-18T00:20:19.033Z,86.60
2018-10-18T00:22:48.862Z,86.60
2018-10-18T00:25:18.834Z,86.80
2018-10-18T00:27:48.790Z,86.60
2018-10-18T00:30:18.838Z,86.80
2018-10-18T00:32:48.657Z,86.80
2018-10-18T00:35:18.642Z,86.90
2018-10-18T00:37:48.524Z,86.90
2018-10-18T00:40:18.487Z,87.00
2018-10-18T00:42:48.388Z,87.00
2018-10-18T00:45:18.226Z,87.10
2018-10-18T00:47:48.110Z,87.00
2018-10-18T00:50:18.095Z,87.00
2018-10-18T00:52:47.980Z,87.00
2018-10-18T00:55:17.909Z,87.00
2018-10-18T00:57:47.898Z,87.00
2018-10-18T01:00:17.863Z,87.00
2018-10-18T01:02:47.626Z,87.00
2018-10-18T01:05:17.530Z,87.10
2018-10-18T01:07:47.426Z,87.20
2018-10-18T01:10:17.274Z,87.10
2018-10-18T01:12:47.072Z,87.10
2018-10-18T01:15:16.833Z,87.20
2018-10-18T01:17:46.657Z,87.10
2018-10-18T01:20:16.632Z,87.20
2018-10-18T01:22:46.512Z,87.20
2018-10-18T01:25:16.441Z,87.10
2018-10-18T01:27:46.194Z,87.10
2018-10-18T01:30:16.095Z,87.30
2018-10-18T01:32:45.883Z,87.10
2018-10-18T01:35:15.619Z,87.00
2018-10-18T01:37:45.333Z,87.30
2018-10-18T01:40:15.171Z,87.20
2018-10-18T01:42:45.618Z,87.10
2018-10-18T01:45:15.457Z,87.20
2018-10-18T01:47:45.303Z,87.20
2018-10-18T01:50:15.103Z,87.20
2018-10-18T01:52:44.890Z,87.30
2018-10-18T01:55:14.659Z,87.00
2018-10-18T01:57:44.464Z,87.00
2018-10-18T02:00:14.292Z,87.00
2018-10-18T02:02:44.025Z,87.00
2018-10-18T02:05:13.840Z,86.90
2018-10-18T02:07:43.670Z,87.00
2018-10-18T02:10:13.564Z,86.90
2018-10-18T02:12:43.356Z,86.80
2018-10-18T02:15:13.379Z,87.00
2018-10-18T02:17:43.321Z,86.70
2018-10-18T02:20:13.090Z,86.70
2018-10-18T02:22:42.872Z,86.70
2018-10-18T02:25:12.846Z,86.70
2018-10-18T02:27:42.617Z,86.60
2018-10-18T02:30:12.559Z,86.60
2018-10-18T02:32:42.328Z,87.30
2018-10-18T02:35:12.049Z,86.50
2018-10-18T02:37:41.974Z,86.40
2018-10-18T02:40:11.940Z,86.40
2018-10-18T02:42:41.615Z,86.40
2018-10-18T02:45:11.448Z,86.30
2018-10-18T02:47:41.298Z,86.30
2018-10-18T02:50:11.230Z,86.30
2018-10-18T02:52:41.027Z,86.20
2018-10-18T02:55:10.868Z,86.20
2018-10-18T02:57:40.742Z,86.20
2018-10-18T03:00:10.813Z,86.10
2018-10-18T03:02:40.518Z,86.20
2018-10-18T03:05:10.430Z,86.20
2018-10-18T03:07:40.243Z,86.20
2018-10-18T03:10:10.099Z,86.20
2018-10-18T03:12:39.957Z,86.20
2018-10-18T03:15:10.742Z,86.10
2018-10-18T03:17:40.731Z,86.10
2018-10-18T03:20:10.564Z,86.10
2018-10-18T03:22:40.450Z,86.10
2018-10-18T03:25:10.926Z,86.00
2018-10-18T03:27:40.913Z,86.10
2018-10-18T03:30:10.809Z,86.20
2018-10-18T03:32:40.460Z,86.10
2018-10-18T03:35:10.569Z,86.10
2018-10-18T03:37:40.370Z,86.10
2018-10-18T03:40:10.742Z,86.10
2018-10-18T03:42:40.541Z,86.10
2018-10-18T03:45:10.467Z,86.00
2018-10-18T03:47:40.250Z,86.00
2018-10-18T03:50:10.121Z,85.90
2018-10-18T03:52:39.858Z,85.80
2018-10-18T03:55:09.761Z,85.70
2018-10-18T03:57:39.573Z,85.70
2018-10-18T04:00:09.688Z,85.60
2018-10-18T04:02:39.649Z,85.60
2018-10-18T04:05:10.337Z,85.50
2018-10-18T04:07:40.139Z,85.50
2018-10-18T04:10:09.917Z,85.50
2018-10-18T04:12:39.768Z,85.40
2018-10-18T04:15:09.708Z,85.40
2018-10-18T04:17:39.589Z,85.40
2018-10-18T04:20:09.463Z,85.40
2018-10-18T04:22:39.391Z,85.40
2018-10-18T04:25:09.550Z,85.40
2018-10-18T04:27:39.425Z,85.40
2018-10-18T04:30:09.634Z,85.30
2018-10-18T04:32:39.435Z,85.20
2018-10-18T04:35:09.450Z,85.10
2018-10-18T04:37:39.380Z,85.00
2018-10-18T04:40:09.304Z,84.90
2018-10-18T04:42:39.173Z,84.80
2018-10-18T04:45:09.602Z,84.80
2018-10-18T04:47:39.569Z,84.70
2018-10-18T04:50:10.381Z,84.70
2018-10-18T04:52:40.242Z,84.60
2018-10-18T04:55:10.343Z,84.70
2018-10-18T04:57:40.194Z,84.80
2018-10-18T05:00:10.082Z,85.00
2018-10-18T05:02:40.426Z,85.10
2018-10-18T05:05:26.938Z,85.10
2018-10-18T05:07:56.772Z,85.20
2018-10-18T05:10:26.594Z,85.30
2018-10-18T05:12:56.440Z,85.50
2018-10-18T05:15:26.156Z,85.60
2018-10-18T05:20:30.298Z,85.90
2018-10-18T05:23:00.189Z,86.10
2018-10-18T05:25:30.731Z,86.20
2018-10-18T05:28:00.523Z,86.10
2018-10-18T05:30:30.371Z,86.40
2018-10-18T05:33:00.262Z,86.40
2018-10-18T05:35:30.613Z,86.50
2018-10-18T05:38:00.414Z,86.50
2018-10-18T05:40:30.208Z,86.60
2018-10-18T05:43:00.163Z,86.60
2018-10-18T05:45:30.023Z,86.70
2018-10-18T05:47:59.795Z,86.90
2018-10-18T05:50:29.523Z,87.00
2018-10-18T05:52:59.278Z,87.00
2018-10-18T05:55:29.078Z,87.00
2018-10-18T05:57:58.944Z,87.00
2018-10-18T06:00:28.766Z,87.10
2018-10-18T06:02:58.716Z,87.30
2018-10-18T06:05:28.434Z,87.40
2018-10-18T06:07:58.324Z,87.50
2018-10-18T06:10:44.643Z,87.70
2018-10-18T06:13:14.640Z,88.00
2018-10-18T06:15:44.414Z,88.20
2018-10-18T06:18:14.344Z,88.30
2018-10-18T06:20:44.229Z,88.50
2018-10-18T06:23:14.108Z,88.60
2018-10-18T06:25:43.954Z,89.00
2018-10-18T06:28:13.870Z,89.10
2018-10-18T06:30:43.658Z,89.40
2018-10-18T06:33:13.508Z,89.60
2018-10-18T06:35:43.283Z,89.80
2018-10-18T06:38:13.154Z,90.00
2018-10-18T06:40:42.951Z,90.10
2018-10-18T06:43:12.738Z,90.20
2018-10-18T06:45:42.430Z,90.30
2018-10-18T06:48:12.329Z,90.90
2018-10-18T06:50:42.172Z,90.70
2018-10-18T06:53:12.084Z,90.80
2018-10-18T06:55:41.971Z,90.80
2018-10-18T06:58:12.537Z,90.90
2018-10-18T07:00:42.470Z,91.00
2018-10-18T07:03:12.298Z,91.00
2018-10-18T07:05:42.229Z,91.10
2018-10-18T07:08:12.117Z,91.10
2018-10-18T07:10:41.954Z,91.10
2018-10-18T07:13:11.720Z,91.10
2018-10-18T07:15:41.728Z,91.10
2018-10-18T07:18:11.607Z,91.10
2018-10-18T07:20:41.537Z,91.30
2018-10-18T07:23:11.360Z,91.20
2018-10-18T07:25:41.849Z,91.20
2018-10-18T07:28:11.755Z,91.20
2018-10-18T07:30:41.709Z,91.10
2018-10-18T07:33:12.003Z,91.10
2018-10-18T07:35:41.963Z,91.00
2018-10-18T07:38:11.751Z,90.90
2018-10-18T07:40:41.685Z,90.90
2018-10-18T07:43:11.681Z,90.80
2018-10-18T07:45:41.527Z,90.70
2018-10-18T07:48:11.411Z,90.70
2018-10-18T07:50:41.293Z,90.60
2018-10-18T07:53:11.343Z,90.60
2018-10-18T07:55:41.124Z,90.70
2018-10-18T07:58:11.027Z,90.70
2018-10-18T08:00:41.092Z,90.80
2018-10-18T08:03:10.898Z,90.80
2018-10-18T08:05:40.771Z,90.90
2018-10-18T08:08:10.522Z,91.20
2018-10-18T08:10:40.475Z,90.90
2018-10-18T08:13:10.504Z,90.90
2018-10-18T08:15:40.280Z,90.80
2018-10-18T08:18:10.283Z,90.80
2018-10-18T08:20:40.033Z,90.70
2018-10-18T08:23:10.832Z,90.60
2018-10-18T08:25:40.767Z,90.40
2018-10-18T08:28:10.660Z,90.30
2018-10-18T08:30:40.538Z,90.20
2018-10-18T08:33:10.378Z,90.10
2018-10-18T08:35:40.358Z,90.00
2018-10-18T08:38:10.276Z,89.90
2018-10-18T08:40:40.098Z,89.70
2018-10-18T08:43:10.080Z,89.50
2018-10-18T08:45:39.868Z,90.00
2018-10-18T08:48:09.779Z,89.00
2018-10-18T08:50:39.750Z,88.90
2018-10-18T08:53:09.675Z,88.80
2018-10-18T08:55:39.667Z,88.80
2018-10-18T08:58:09.578Z,88.90
2018-10-18T09:00:39.448Z,88.60
2018-10-18T09:03:09.366Z,88.40
2018-10-18T09:05:39.282Z,88.50
2018-10-18T09:08:09.129Z,88.60
2018-10-18T09:10:39.042Z,88.50
2018-10-18T09:13:09.071Z,88.60
2018-10-18T09:15:38.943Z,88.10
2018-10-18T09:18:08.836Z,87.70
2018-10-18T09:20:38.665Z,86.40
2018-10-18T09:23:08.649Z,86.00
2018-10-18T09:25:38.609Z,85.00
2018-10-18T09:28:08.553Z,84.80
2018-10-18T09:30:38.473Z,83.70
2018-10-18T09:33:08.331Z,82.70
2018-10-18T09:35:38.392Z,82.10
2018-10-18T09:38:08.528Z,81.90
2018-10-18T09:40:38.417Z,81.30
2018-10-18T09:43:08.500Z,81.00
2018-10-18T09:45:38.509Z,81.50
2018-10-18T09:48:08.534Z,81.00
2018-10-18T09:50:38.459Z,79.80
2018-10-18T09:53:08.306Z,80.50
2018-10-18T09:55:38.371Z,79.40
2018-10-18T09:58:08.137Z,78.30
2018-10-18T10:00:42.995Z,77.10
2018-10-18T10:03:15.553Z,76.40
2018-10-18T10:05:45.439Z,76.90
2018-10-18T10:08:15.371Z,76.20
2018-10-18T10:10:45.191Z,75.70
2018-10-18T10:13:15.227Z,75.70
2018-10-18T10:15:45.022Z,76.30
2018-10-18T10:18:14.970Z,77.60
2018-10-18T10:20:44.755Z,77.40
2018-10-18T10:23:14.733Z,77.70
2018-10-18T10:25:44.563Z,78.20
2018-10-18T10:28:14.543Z,78.30
2018-10-18T10:30:44.441Z,78.50
2018-10-18T10:33:14.419Z,78.50
2018-10-18T10:35:44.289Z,78.90
2018-10-18T10:38:14.209Z,79.20
2018-10-18T10:40:44.119Z,79.40
2018-10-18T10:43:14.027Z,79.70
2018-10-18T10:45:43.940Z,80.00
2018-10-18T10:48:13.706Z,80.40
2018-10-18T10:50:43.647Z,80.50
2018-10-18T10:53:13.981Z,81.00
2018-10-18T10:55:43.932Z,80.90
2018-10-18T10:58:13.808Z,80.50
2018-10-18T11:01:16.302Z,80.50
2018-10-18T11:03:46.585Z,80.70
2018-10-18T11:06:16.599Z,80.60
2018-10-18T11:08:46.560Z,80.20
2018-10-18T11:11:16.960Z,81.00
2018-10-18T11:13:46.924Z,81.70
2018-10-18T11:16:16.740Z,82.40
2018-10-18T11:18:46.694Z,83.20
2018-10-18T11:21:17.894Z,84.00
2018-10-18T11:23:47.770Z,84.60
2018-10-18T11:26:17.758Z,84.40
2018-10-18T11:28:47.670Z,84.50
2018-10-18T11:31:17.535Z,84.50
2018-10-18T11:33:47.378Z,84.40
2018-10-18T11:36:17.426Z,84.70
2018-10-18T11:38:47.080Z,85.00
2018-10-18T11:41:17.014Z,85.00
2018-10-18T11:43:46.946Z,84.80
2018-10-18T11:46:16.784Z,85.00
2018-10-18T11:48:46.721Z,85.20
2018-10-18T11:51:16.505Z,85.40
2018-10-18T11:53:46.503Z,85.80
2018-10-18T11:56:16.448Z,86.40
2018-10-18T11:58:46.241Z,86.90
2018-10-18T12:01:16.192Z,87.40
2018-10-18T12:03:46.157Z,88.50
2018-10-18T12:06:16.231Z,87.80
2018-10-18T12:08:46.265Z,88.00
2018-10-18T12:11:16.319Z,88.10
2018-10-18T12:13:47.463Z,88.40
2018-10-18T12:16:17.332Z,88.10
2018-10-18T12:18:47.299Z,88.00
2018-10-18T12:21:17.127Z,87.80
2018-10-18T12:23:47.025Z,87.80
2018-10-18T12:26:16.923Z,87.50
2018-10-18T12:28:47.650Z,87.60
2018-10-18T12:31:17.534Z,87.30
2018-10-18T12:33:47.483Z,87.10
2018-10-18T12:36:17.354Z,86.50
2018-10-18T12:38:47.369Z,86.00
2018-10-18T12:41:17.371Z,85.80
2018-10-18T12:43:47.312Z,85.60
2018-10-18T12:46:17.257Z,85.50
2018-10-18T12:48:47.247Z,85.70
2018-10-18T12:51:17.053Z,85.80
2018-10-18T12:53:46.866Z,85.90
2018-10-18T12:56:16.844Z,85.90
2018-10-18T12:58:47.042Z,86.00
2018-10-18T13:01:17.014Z,86.00
2018-10-18T13:03:46.931Z,86.10
2018-10-18T13:06:16.983Z,86.10
2018-10-18T13:08:46.862Z,86.30
2018-10-18T13:11:16.880Z,86.40
2018-10-18T13:13:46.858Z,86.40
2018-10-18T13:16:16.785Z,86.50
2018-10-18T13:18:46.638Z,86.60
2018-10-18T13:21:16.536Z,86.50
2018-10-18T13:23:46.305Z,86.10
2018-10-18T13:26:16.201Z,86.00
2018-10-18T13:28:46.014Z,85.90
2018-10-18T13:31:15.944Z,85.90
2018-10-18T13:33:46.180Z,86.00
2018-10-18T13:36:16.227Z,86.00
2018-10-18T13:38:46.126Z,86.90
2018-10-18T13:41:16.011Z,85.80
2018-10-18T13:43:45.783Z,85.70
2018-10-18T13:46:15.739Z,85.60
2018-10-18T13:48:45.562Z,85.50
2018-10-18T13:51:15.471Z,85.40
2018-10-18T13:53:45.294Z,85.00
2018-10-18T13:56:15.249Z,84.80
2018-10-18T13:58:44.965Z,84.80
2018-10-18T14:01:14.816Z,84.60
2018-10-18T14:03:44.646Z,84.50
2018-10-18T14:06:14.510Z,84.70
2018-10-18T14:08:44.942Z,84.90
2018-10-18T14:11:15.258Z,85.00
2018-10-18T14:13:45.102Z,85.10
2018-10-18T14:16:15.482Z,85.00
2018-10-18T14:18:45.430Z,85.10
2018-10-18T14:21:15.397Z,85.00
2018-10-18T14:23:45.281Z,84.50
2018-10-18T14:26:15.175Z,84.70
2018-10-18T14:28:45.018Z,83.50
2018-10-18T14:31:14.966Z,83.40
2018-10-18T14:33:44.866Z,83.40
2018-10-18T14:36:14.698Z,83.40
2018-10-18T14:38:44.527Z,83.50
2018-10-18T14:41:14.335Z,83.50
2018-10-18T14:43:44.228Z,83.50
2018-10-18T14:46:14.653Z,83.80
2018-10-18T14:48:44.415Z,85.10
2018-10-18T14:51:14.169Z,84.40
2018-10-18T14:53:44.043Z,84.20
2018-10-18T14:56:14.143Z,84.70
2018-10-18T14:58:44.023Z,85.20
2018-10-18T15:01:13.937Z,85.50
2018-10-18T15:03:43.856Z,85.80
2018-10-18T15:06:13.683Z,85.80
2018-10-18T15:08:43.565Z,85.70
2018-10-18T15:11:13.479Z,86.00
2018-10-18T15:13:43.231Z,86.20
2018-10-18T15:16:13.199Z,86.40
2018-10-18T15:18:43.247Z,86.50
2018-10-18T15:21:13.247Z,86.70
2018-10-18T15:23:43.183Z,86.80
2018-10-18T15:26:13.085Z,87.10
2018-10-18T15:28:42.949Z,87.00
2018-10-18T15:31:12.819Z,87.90
2018-10-18T15:33:42.729Z,87.20
2018-10-18T15:36:12.730Z,87.20
2018-10-18T15:38:42.919Z,87.20
2018-10-18T15:41:12.883Z,87.00
2018-10-18T15:43:42.803Z,86.80
2018-10-18T15:46:12.599Z,86.60
2018-10-18T15:48:42.535Z,86.60
2018-10-18T15:51:12.463Z,86.50
2018-10-18T15:53:42.368Z,86.50
2018-10-18T15:56:12.290Z,87.30
2018-10-18T15:58:42.075Z,86.50
2018-10-18T16:01:12.246Z,86.40
2018-10-18T16:03:42.295Z,86.40
2018-10-18T16:06:12.337Z,86.40
2018-10-18T16:08:44.975Z,86.40
2018-10-18T16:11:15.692Z,86.40
2018-10-18T16:13:45.620Z,86.40
2018-10-18T16:16:15.716Z,86.40
2018-10-18T16:18:45.862Z,86.40
2018-10-18T16:21:16.115Z,86.50
2018-10-18T16:23:46.345Z,86.50
2018-10-18T16:26:16.442Z,86.50
2018-10-18T16:28:46.636Z,86.60
2018-10-18T16:31:26.200Z,86.60
2018-10-18T16:33:56.093Z,86.70
2018-10-18T16:36:35.095Z,86.70
2018-10-18T16:39:16.238Z,86.90
2018-10-18T16:44:24.922Z,86.70
2018-10-18T16:47:02.231Z,87.10
2018-10-18T16:49:32.294Z,87.20
2018-10-18T16:52:02.332Z,87.10
2018-10-18T16:54:32.201Z,87.20
2018-10-18T16:57:02.249Z,87.30
2018-10-18T16:59:32.205Z,87.40
2018-10-18T17:02:02.249Z,87.40
2018-10-18T17:04:32.172Z,87.40
2018-10-18T17:07:02.173Z,87.40
2018-10-18T17:09:32.203Z,87.40
2018-10-18T17:12:02.334Z,87.50
2018-10-18T17:14:32.327Z,87.50
2018-10-18T17:17:02.197Z,87.60
2018-10-18T17:19:32.197Z,87.60
2018-10-18T17:22:02.549Z,87.60
2018-10-18T17:24:32.473Z,87.60
2018-10-18T17:27:02.539Z,87.70
2018-10-18T17:29:32.589Z,88.50
2018-10-18T17:32:02.660Z,87.70
2018-10-18T17:34:32.595Z,88.50
2018-10-18T17:37:02.451Z,87.80
2018-10-18T17:39:32.359Z,87.80
2018-10-18T17:42:03.221Z,87.80
2018-10-18T17:44:32.995Z,87.80
2018-10-18T17:47:02.980Z,87.80
2018-10-18T17:49:32.876Z,87.80
2018-10-18T17:52:02.840Z,87.80
2018-10-18T17:54:32.766Z,87.80
2018-10-18T17:57:02.723Z,87.80
2018-10-18T17:59:32.733Z,87.90
2018-10-18T18:02:02.805Z,87.90
2018-10-18T18:04:32.635Z,87.90
2018-10-18T18:07:02.610Z,87.90
2018-10-18T18:09:32.421Z,88.00
2018-10-18T18:12:02.415Z,89.00
2018-10-18T18:14:32.311Z,87.90
2018-10-18T18:17:02.255Z,87.90
2018-10-18T18:19:32.112Z,87.90
2018-10-18T18:22:02.044Z,87.90
2018-10-18T18:24:32.179Z,87.90
2018-10-18T18:27:02.151Z,88.00
2018-10-18T18:29:32.149Z,88.00
2018-10-18T18:32:02.226Z,87.90
2018-10-18T18:34:32.113Z,87.90
2018-10-18T18:37:02.013Z,87.90
2018-10-18T18:39:32.112Z,88.00
2018-10-18T18:42:02.019Z,88.20
2018-10-18T18:44:31.919Z,88.30
2018-10-18T18:47:01.721Z,88.30
2018-10-18T18:49:31.714Z,88.30
2018-10-18T18:52:02.239Z,89.00
2018-10-18T18:54:32.088Z,88.90
2018-10-18T18:57:02.038Z,88.00
2018-10-18T18:59:32.038Z,87.90
2018-10-18T19:02:02.030Z,87.80
2018-10-18T19:04:32.051Z,87.50
2018-10-18T19:07:02.083Z,87.40
2018-10-18T19:09:32.093Z,87.30
2018-10-18T19:12:03.834Z,87.10
2018-10-18T19:14:35.801Z,86.90
2018-10-18T19:17:07.872Z,86.60
2018-10-18T19:19:38.845Z,86.30
2018-10-18T19:22:09.541Z,86.30
2018-10-18T19:24:39.671Z,86.00
2018-10-18T19:27:09.705Z,85.80
2018-10-18T19:29:39.689Z,85.60
2018-10-18T19:32:09.723Z,85.60
2018-10-18T19:34:39.615Z,85.50
2018-10-18T19:37:09.648Z,85.40
2018-10-18T19:39:39.578Z,85.50
2018-10-18T19:42:09.114Z,85.60
2018-10-18T19:44:39.114Z,85.60
2018-10-18T19:47:09.128Z,85.70
2018-10-18T19:49:39.056Z,85.70
2018-10-18T19:52:09.093Z,85.70
2018-10-18T19:54:39.973Z,85.80
2018-10-18T19:57:09.883Z,85.70
2018-10-18T19:59:39.850Z,85.70
2018-10-18T20:02:09.790Z,85.80
2018-10-18T20:04:39.626Z,85.80
2018-10-18T20:07:09.714Z,85.90
2018-10-18T20:09:39.696Z,86.10
2018-10-18T20:12:09.571Z,86.10
2018-10-18T20:14:39.442Z,86.10
2018-10-18T20:17:09.410Z,86.10
2018-10-18T20:19:39.265Z,86.20
2018-10-18T20:22:12.476Z,86.10
2018-10-18T20:24:42.648Z,86.10
2018-10-18T20:27:12.506Z,85.90
2018-10-18T20:29:47.580Z,85.80
2018-10-18T20:32:17.537Z,85.70
2018-10-18T20:34:47.441Z,85.70
2018-10-18T20:37:17.431Z,85.60
2018-10-18T20:39:47.371Z,85.40
2018-10-18T20:42:17.277Z,85.30
2018-10-18T20:44:47.203Z,85.30
2018-10-18T20:47:17.254Z,85.20
2018-10-18T20:49:46.967Z,85.20
2018-10-18T20:52:17.022Z,85.00
2018-10-18T20:54:46.918Z,85.00
2018-10-18T20:57:17.008Z,85.00
2018-10-18T20:59:46.907Z,85.00
2018-10-18T21:02:16.791Z,85.00
2018-10-18T21:04:46.655Z,84.80
2018-10-18T21:07:16.521Z,84.80
2018-10-18T21:09:46.551Z,84.80
2018-10-18T21:12:16.527Z,84.80
2018-10-18T21:14:46.531Z,84.70
2018-10-18T21:17:16.489Z,84.60
2018-10-18T21:19:46.252Z,83.80
2018-10-18T21:22:16.278Z,84.50
2018-10-18T21:24:46.273Z,84.50
2018-10-18T21:27:16.231Z,84.50
2018-10-18T21:29:46.134Z,84.40
2018-10-18T21:32:16.240Z,84.40
2018-10-18T21:34:46.171Z,84.30
2018-10-18T21:37:16.080Z,84.40
2018-10-18T21:39:45.918Z,84.40
2018-10-18T21:42:15.816Z,84.50
2018-10-18T21:44:46.158Z,84.30
2018-10-18T21:47:17.378Z,85.10
2018-10-18T21:49:47.383Z,83.80
2018-10-18T21:52:17.223Z,83.70
2018-10-18T21:54:47.269Z,83.20
2018-10-18T21:57:17.115Z,83.20
2018-10-18T21:59:47.062Z,82.90
2018-10-18T22:02:16.944Z,82.80
2018-10-18T22:04:47.014Z,82.70
2018-10-18T22:07:16.908Z,82.60
2018-10-18T22:09:46.730Z,82.50
2018-10-18T22:12:16.723Z,82.40
2018-10-18T22:14:46.629Z,82.30
2018-10-18T22:17:16.538Z,82.40
2018-10-18T22:19:47.062Z,82.30
2018-10-18T22:22:17.026Z,82.30
2018-10-18T22:24:48.579Z,82.30
2018-10-18T22:27:18.492Z,82.10
2018-10-18T22:29:48.296Z,82.00
2018-10-18T22:32:18.154Z,82.00
2018-10-18T22:34:48.220Z,82.00
2018-10-18T22:37:18.057Z,82.70
2018-10-18T22:39:48.004Z,81.90
2018-10-18T22:42:17.736Z,81.70
2018-10-18T22:44:47.740Z,81.50
2018-10-18T22:47:17.743Z,81.50
2018-10-18T22:49:47.593Z,81.40
2018-10-18T22:52:17.479Z,81.40
2018-10-18T22:54:47.261Z,81.60
2018-10-18T22:57:17.377Z,81.50
2018-10-18T22:59:47.345Z,81.20
2018-10-18T23:02:17.232Z,80.90
2018-10-18T23:04:47.025Z,80.80
2018-10-18T23:07:16.939Z,80.80
2018-10-18T23:09:46.715Z,80.60
2018-10-18T23:12:16.563Z,80.10
2018-10-18T23:14:46.413Z,80.20
2018-10-18T23:17:16.541Z,80.20
2018-10-18T23:19:46.158Z,80.00
2018-10-18T23:22:15.994Z,79.90
2018-10-18T23:24:45.809Z,80.00
2018-10-18T23:27:14.770Z,79.90
2018-10-18T23:29:44.487Z,79.90
2018-10-18T23:32:14.312Z,79.70
2018-10-18T23:34:44.203Z,79.90
2018-10-18T23:37:14.010Z,79.80
2018-10-18T23:39:43.814Z,80.00
2018-10-18T23:42:13.707Z,80.10
2018-10-18T23:44:43.693Z,80.20
2018-10-18T23:47:13.483Z,80.30
2018-10-18T23:49:43.244Z,80.20
2018-10-18T23:52:13.108Z,80.30
2018-10-18T23:54:42.989Z,80.30
2018-10-18T23:57:12.813Z,80.50
2018-10-18T23:59:42.602Z,80.70
